createdAt,value
2023-03-03T00:02:08.124Z,64.01
2023-03-03T00:04:37.582Z,64.63
2023-03-03T00:07:06.568Z,65.08
2023-03-03T00:09:35.337Z,65.13
2023-03-03T00:12:26.387Z,65.30
2023-03-03T00:14:57.037Z,65.59
2023-03-03T00:17:29.741Z,66.15
2023-03-03T00:19:58.459Z,66.33
2023-03-03T00:22:38.712Z,66.25
2023-03-03T00:25:35.037Z,66.23
2023-03-03T00:28:24.573Z,66.55
2023-03-03T00:30:54.671Z,66.92
2023-03-03T00:33:35.182Z,66.91
2023-03-03T00:36:16.923Z,66.71
2023-03-03T00:38:48.955Z,66.61
2023-03-03T00:41:25.298Z,66.54
2023-03-03T00:43:54.586Z,66.36
2023-03-03T00:46:24.734Z,66.03
2023-03-03T00:48:53.654Z,65.95
2023-03-03T00:51:36.266Z,65.88
2023-03-03T00:54:05.343Z,65.98
2023-03-03T00:56:34.160Z,66.02
2023-03-03T00:59:03.161Z,66.25
2023-03-03T01:01:32.713Z,66.42
2023-03-03T01:04:02.346Z,66.77
2023-03-03T01:06:31.196Z,66.98
2023-03-03T01:09:00.475Z,66.81
2023-03-03T01:11:29.770Z,66.61
2023-03-03T01:13:58.886Z,66.47
2023-03-03T01:16:29.833Z,66.86
2023-03-03T01:18:58.966Z,66.53
2023-03-03T01:21:28.439Z,66.03
2023-03-03T01:23:57.444Z,65.97
2023-03-03T01:26:26.990Z,66.14
2023-03-03T01:28:56.035Z,66.25
2023-03-03T01:31:25.368Z,66.38
2023-03-03T01:33:54.665Z,66.42
2023-03-03T01:36:26.159Z,67.07
2023-03-03T01:38:55.641Z,67.60
2023-03-03T01:41:30.513Z,67.64
2023-03-03T01:44:01.683Z,67.42
2023-03-03T01:46:48.805Z,67.25
2023-03-03T01:49:43.797Z,67.60
2023-03-03T01:52:23.442Z,68.02
2023-03-03T01:54:57.165Z,68.11
2023-03-03T01:57:33.842Z,67.82
2023-03-03T02:00:05.528Z,67.88
2023-03-03T02:02:36.585Z,68.10
2023-03-03T02:05:05.794Z,68.21
2023-03-03T02:07:36.379Z,68.11
2023-03-03T02:10:07.596Z,68.25
2023-03-03T02:12:44.055Z,68.40
2023-03-03T02:15:25.353Z,68.67
2023-03-03T02:17:58.520Z,68.74
2023-03-03T02:20:45.772Z,68.79
2023-03-03T02:23:52.624Z,69.09
2023-03-03T02:26:27.748Z,69.27
2023-03-03T02:28:56.843Z,68.96
2023-03-03T02:31:30.036Z,68.79
2023-03-03T02:33:59.796Z,68.58
2023-03-03T02:36:34.980Z,68.72
2023-03-03T02:39:18.846Z,68.77
2023-03-03T02:42:09.853Z,68.55
2023-03-03T02:44:39.193Z,68.65
2023-03-03T02:47:08.485Z,68.76
2023-03-03T02:49:38.349Z,68.74
2023-03-03T02:52:10.756Z,68.69
2023-03-03T02:54:40.723Z,68.58
2023-03-03T02:57:09.769Z,68.97
2023-03-03T02:59:38.535Z,68.86
2023-03-03T03:02:09.415Z,68.96
2023-03-03T03:04:38.293Z,68.84
2023-03-03T03:07:07.184Z,68.87
2023-03-03T03:09:36.308Z,69.09
2023-03-03T03:12:05.634Z,69.16
2023-03-03T03:14:34.491Z,69.39
2023-03-03T03:17:03.070Z,69.32
2023-03-03T03:19:31.759Z,69.47
2023-03-03T03:22:00.558Z,69.79
2023-03-03T03:24:30.246Z,69.79
2023-03-03T03:26:59.164Z,69.63
2023-03-03T03:29:28.244Z,69.52
2023-03-03T03:31:57.619Z,69.63
2023-03-03T03:34:26.617Z,69.89
2023-03-03T03:36:55.668Z,69.90
2023-03-03T03:39:24.297Z,69.84
2023-03-03T03:41:53.253Z,69.85
2023-03-03T03:44:22.587Z,70.10
2023-03-03T03:46:52.067Z,70.09
2023-03-03T03:49:21.420Z,69.82
2023-03-03T03:51:51.473Z,69.55
2023-03-03T03:54:20.452Z,69.61
2023-03-03T03:56:49.987Z,69.85
2023-03-03T03:59:18.944Z,69.75
2023-03-03T04:01:48.878Z,69.32
2023-03-03T04:04:18.351Z,68.76
2023-03-03T04:06:47.270Z,68.56
2023-03-03T04:09:16.855Z,68.45
2023-03-03T04:11:45.895Z,68.17
2023-03-03T04:14:15.012Z,68.46
2023-03-03T04:16:44.433Z,68.79
2023-03-03T04:19:13.657Z,69.29
2023-03-03T04:21:43.038Z,69.70
2023-03-03T04:24:12.623Z,69.75
2023-03-03T04:26:42.111Z,69.63
2023-03-03T04:29:10.785Z,69.77
2023-03-03T04:31:39.822Z,69.84
2023-03-03T04:34:08.612Z,69.98
2023-03-03T04:36:37.973Z,69.62
2023-03-03T04:39:07.198Z,69.86
2023-03-03T04:41:36.295Z,69.79
2023-03-03T04:44:06.383Z,70.00
2023-03-03T04:46:35.924Z,69.98
2023-03-03T04:49:09.738Z,69.73
2023-03-03T04:51:40.043Z,69.98
2023-03-03T04:54:08.958Z,69.71
2023-03-03T04:56:37.761Z,69.63
2023-03-03T04:59:06.848Z,68.97
2023-03-03T05:01:35.914Z,68.90
2023-03-03T05:04:05.348Z,69.04
2023-03-03T05:06:34.421Z,69.29
2023-03-03T05:09:03.753Z,69.16
2023-03-03T05:11:33.049Z,68.93
2023-03-03T05:14:03.542Z,68.92
2023-03-03T05:16:32.320Z,69.10
2023-03-03T05:19:01.719Z,69.10
2023-03-03T05:21:30.846Z,68.87
2023-03-03T05:23:59.877Z,68.74
2023-03-03T05:26:29.056Z,68.97
2023-03-03T05:28:58.565Z,69.08
2023-03-03T05:31:27.785Z,69.26
2023-03-03T05:33:56.807Z,69.16
2023-03-03T05:36:26.227Z,69.28
2023-03-03T05:38:55.830Z,69.31
2023-03-03T05:41:24.735Z,69.44
2023-03-03T05:43:54.584Z,69.31
2023-03-03T05:46:23.603Z,69.18
2023-03-03T05:48:52.717Z,69.46
2023-03-03T05:51:21.531Z,69.71
2023-03-03T05:53:50.266Z,69.66
2023-03-03T05:56:19.425Z,69.28
2023-03-03T05:58:48.425Z,69.11
2023-03-03T06:01:17.645Z,68.84
2023-03-03T06:03:47.150Z,68.79
2023-03-03T06:06:17.668Z,68.47
2023-03-03T06:08:46.848Z,68.08
2023-03-03T06:11:19.089Z,68.10
2023-03-03T06:13:48.424Z,68.42
2023-03-03T06:16:17.369Z,68.76
2023-03-03T06:18:46.203Z,68.53
2023-03-03T06:21:15.343Z,68.43
2023-03-03T06:23:44.853Z,68.49
2023-03-03T06:26:13.658Z,68.74
2023-03-03T06:28:44.012Z,68.44
2023-03-03T06:31:14.058Z,67.93
2023-03-03T06:33:43.907Z,67.54
2023-03-03T06:36:12.936Z,67.57
2023-03-03T06:38:42.030Z,67.62
2023-03-03T06:41:11.680Z,67.26
2023-03-03T06:43:40.918Z,67.12
2023-03-03T06:46:10.418Z,66.90
2023-03-03T06:48:40.153Z,67.14
2023-03-03T06:51:33.341Z,67.04
2023-03-03T06:54:10.499Z,66.94
2023-03-03T06:56:39.910Z,67.06
2023-03-03T06:59:13.256Z,67.04
2023-03-03T07:01:44.066Z,66.99
2023-03-03T07:04:32.096Z,66.83
2023-03-03T07:07:11.950Z,66.70
2023-03-03T07:09:41.850Z,66.76
2023-03-03T07:12:15.930Z,67.27
2023-03-03T07:14:47.602Z,67.49
2023-03-03T07:17:20.222Z,67.32
2023-03-03T07:19:50.739Z,67.08
2023-03-03T07:22:23.682Z,67.17
2023-03-03T07:24:56.193Z,67.16
2023-03-03T07:27:29.987Z,66.83
2023-03-03T07:30:27.608Z,66.49
2023-03-03T07:32:59.327Z,66.40
2023-03-03T07:35:45.484Z,66.30
2023-03-03T07:38:53.977Z,66.12
2023-03-03T07:41:24.574Z,64.93
2023-03-03T07:43:56.340Z,63.78
2023-03-03T07:46:45.538Z,62.98
2023-03-03T07:49:23.418Z,62.04
2023-03-03T07:51:58.248Z,60.40
2023-03-03T07:54:41.007Z,59.00
2023-03-03T07:57:19.673Z,57.39
2023-03-03T08:00:03.761Z,55.06
2023-03-03T08:02:54.861Z,51.47
2023-03-03T08:05:42.678Z,47.27
2023-03-03T08:08:20.787Z,44.53
2023-03-03T08:10:53.326Z,42.77
2023-03-03T08:13:25.118Z,42.13
2023-03-03T08:16:04.180Z,41.32
2023-03-03T08:18:48.720Z,41.30
2023-03-03T08:21:22.870Z,42.03
2023-03-03T08:23:55.302Z,43.20
2023-03-03T08:26:27.507Z,44.31
2023-03-03T08:28:56.950Z,45.07
2023-03-03T08:31:40.307Z,44.71
2023-03-03T08:34:11.447Z,44.88
2023-03-03T08:36:41.225Z,45.11
2023-03-03T08:39:10.974Z,45.85
2023-03-03T08:41:44.153Z,46.82
2023-03-03T08:44:13.618Z,47.55
2023-03-03T08:46:42.717Z,48.38
2023-03-03T08:49:13.750Z,48.69
2023-03-03T08:51:43.561Z,49.09
2023-03-03T08:54:13.161Z,49.15
2023-03-03T08:56:44.035Z,48.86
2023-03-03T08:59:14.187Z,48.74
2023-03-03T09:01:45.701Z,47.83
2023-03-03T09:04:15.700Z,46.44
2023-03-03T09:06:45.655Z,42.20
2023-03-03T09:09:15.207Z,38.50
2023-03-03T09:11:44.872Z,34.94
2023-03-03T09:14:17.614Z,33.26
2023-03-03T09:16:57.935Z,32.24
2023-03-03T09:19:33.714Z,32.20
2023-03-03T09:22:20.823Z,32.21
2023-03-03T09:24:54.864Z,33.05
2023-03-03T09:27:32.295Z,34.48
2023-03-03T09:30:24.881Z,35.26
2023-03-03T09:32:58.888Z,35.91
2023-03-03T09:35:37.075Z,36.00
2023-03-03T09:38:32.158Z,36.60
2023-03-03T09:41:38.937Z,38.15
2023-03-03T09:44:36.417Z,38.85
2023-03-03T09:47:05.820Z,39.92
2023-03-03T09:49:45.274Z,40.17
2023-03-03T09:52:46.201Z,41.52
2023-03-03T09:55:25.355Z,42.98
2023-03-03T09:58:11.542Z,43.40
2023-03-03T10:01:03.340Z,43.58
2023-03-03T10:04:10.359Z,44.00
2023-03-03T10:06:55.069Z,44.09
2023-03-03T10:09:51.129Z,44.32
2023-03-03T10:13:05.886Z,44.49
2023-03-03T10:15:47.805Z,44.47
2023-03-03T10:18:27.443Z,44.05
2023-03-03T10:21:16.421Z,42.89
2023-03-03T10:24:21.226Z,39.81
2023-03-03T10:27:26.495Z,38.42
2023-03-03T10:29:59.946Z,39.24
2023-03-03T10:32:57.478Z,39.69
2023-03-03T10:36:04.660Z,40.23
2023-03-03T10:38:56.233Z,41.51
2023-03-03T10:41:40.250Z,41.53
2023-03-03T10:44:34.696Z,40.95
2023-03-03T10:47:22.455Z,40.67
2023-03-03T10:50:01.191Z,41.13
2023-03-03T10:52:53.551Z,41.13
2023-03-03T10:56:07.135Z,41.75
2023-03-03T10:58:48.285Z,42.19
2023-03-03T11:01:39.973Z,42.35
2023-03-03T11:04:30.285Z,42.78
2023-03-03T11:07:17.660Z,43.01
2023-03-03T11:10:15.849Z,43.41
2023-03-03T11:13:14.428Z,43.33
2023-03-03T11:15:53.372Z,43.10
2023-03-03T11:18:35.572Z,41.93
2023-03-03T11:21:04.425Z,41.36
2023-03-03T11:24:31.667Z,40.59
2023-03-03T11:27:16.818Z,36.32
2023-03-03T11:30:05.264Z,36.41
2023-03-03T11:32:44.265Z,38.26
2023-03-03T11:35:50.708Z,39.98
2023-03-03T11:38:42.700Z,42.03
2023-03-03T11:41:26.884Z,42.60
2023-03-03T11:44:09.863Z,42.84
2023-03-03T11:46:47.471Z,43.48
2023-03-03T11:49:37.183Z,43.72
2023-03-03T11:52:06.386Z,44.15
2023-03-03T11:54:55.086Z,44.43
2023-03-03T11:57:40.187Z,43.83
2023-03-03T12:00:31.220Z,44.45
2023-03-03T12:03:18.719Z,43.47
2023-03-03T12:05:57.588Z,43.02
2023-03-03T12:08:36.600Z,42.44
2023-03-03T12:11:29.128Z,42.09
2023-03-03T12:14:05.792Z,42.01
2023-03-03T12:16:54.431Z,42.25
2023-03-03T12:19:36.509Z,42.09
2023-03-03T12:22:19.176Z,41.77
2023-03-03T12:25:07.962Z,42.01
2023-03-03T12:28:16.036Z,41.82
2023-03-03T12:30:54.641Z,40.95
2023-03-03T12:34:02.003Z,40.64
2023-03-03T12:36:55.891Z,38.01
2023-03-03T12:39:35.129Z,36.24
2023-03-03T12:42:33.244Z,35.96
2023-03-03T12:45:29.563Z,36.39
2023-03-03T12:48:14.085Z,36.83
2023-03-03T12:51:11.588Z,37.03
2023-03-03T12:54:09.362Z,37.01
2023-03-03T12:56:56.087Z,37.16
2023-03-03T12:59:31.773Z,37.04
2023-03-03T13:02:27.210Z,36.84
2023-03-03T13:05:12.413Z,37.19
2023-03-03T13:08:10.343Z,37.52
2023-03-03T13:10:58.719Z,37.79
2023-03-03T13:13:59.126Z,38.37
2023-03-03T13:16:54.997Z,38.85
2023-03-03T13:19:39.819Z,39.64
2023-03-03T13:22:20.405Z,40.21
2023-03-03T13:25:09.758Z,40.60
2023-03-03T13:27:43.950Z,40.62
2023-03-03T13:30:22.938Z,40.34
2023-03-03T13:33:15.273Z,41.08
2023-03-03T13:36:12.439Z,41.98
2023-03-03T13:38:52.350Z,42.25
2023-03-03T13:41:28.471Z,42.64
2023-03-03T13:44:25.010Z,42.93
2023-03-03T13:47:17.847Z,43.04
2023-03-03T13:50:04.530Z,43.33
2023-03-03T13:53:02.589Z,43.26
2023-03-03T13:55:41.685Z,43.48
2023-03-03T13:58:37.600Z,43.57
2023-03-03T14:01:20.312Z,43.71
2023-03-03T14:03:50.942Z,43.81
2023-03-03T14:06:30.040Z,44.01
2023-03-03T14:09:28.171Z,43.68
2023-03-03T14:12:06.708Z,43.51
2023-03-03T14:14:53.696Z,43.29
2023-03-03T14:17:54.117Z,43.68
2023-03-03T14:20:29.762Z,43.85
2023-03-03T14:23:17.251Z,43.78
2023-03-03T14:25:55.417Z,43.85
2023-03-03T14:28:27.729Z,43.51
2023-03-03T14:30:59.433Z,43.49
2023-03-03T14:33:32.973Z,43.29
2023-03-03T14:36:07.399Z,43.29
2023-03-03T14:38:40.496Z,42.77
2023-03-03T14:41:10.552Z,42.49
2023-03-03T14:43:42.441Z,42.09
2023-03-03T14:46:37.116Z,42.25
2023-03-03T14:49:15.126Z,42.42
2023-03-03T14:51:48.142Z,42.46
2023-03-03T14:54:22.915Z,42.85
2023-03-03T14:57:21.131Z,43.16
2023-03-03T15:00:29.006Z,43.59
2023-03-03T15:03:19.537Z,43.97
2023-03-03T15:05:57.917Z,44.21
2023-03-03T15:08:37.107Z,44.33
2023-03-03T15:11:27.952Z,44.55
2023-03-03T15:14:18.137Z,44.60
2023-03-03T15:16:47.743Z,44.84
2023-03-03T15:19:19.565Z,44.83
2023-03-03T15:22:20.688Z,44.98
2023-03-03T15:25:29.543Z,45.34
2023-03-03T15:28:16.424Z,45.49
2023-03-03T15:30:56.482Z,45.54
2023-03-03T15:33:27.981Z,45.55
2023-03-03T15:36:05.201Z,45.68
2023-03-03T15:38:59.683Z,45.87
2023-03-03T15:41:46.253Z,45.98
2023-03-03T15:44:54.004Z,46.17
2023-03-03T15:47:33.829Z,46.60
2023-03-03T15:50:32.582Z,46.47
2023-03-03T15:53:29.546Z,46.61
2023-03-03T15:56:20.965Z,47.02
2023-03-03T15:58:53.332Z,46.66
2023-03-03T16:01:33.464Z,46.78
2023-03-03T16:04:12.354Z,47.03
2023-03-03T16:07:06.803Z,47.28
2023-03-03T16:09:48.208Z,47.50
2023-03-03T16:12:22.840Z,47.56
2023-03-03T16:15:20.033Z,48.04
2023-03-03T16:18:12.962Z,48.20
2023-03-03T16:21:00.320Z,48.32
2023-03-03T16:23:52.558Z,48.57
2023-03-03T16:26:54.926Z,48.56
2023-03-03T16:29:35.912Z,49.12
2023-03-03T16:32:13.598Z,49.26
2023-03-03T16:35:14.213Z,49.48
2023-03-03T16:38:23.199Z,49.66
2023-03-03T16:40:57.314Z,50.38
2023-03-03T16:43:44.571Z,50.38
2023-03-03T16:46:34.602Z,50.31
2023-03-03T16:49:20.133Z,50.40
2023-03-03T16:52:12.198Z,50.32
2023-03-03T16:55:03.929Z,50.33
2023-03-03T16:57:38.672Z,50.66
2023-03-03T17:00:46.025Z,51.20
2023-03-03T17:03:18.065Z,51.34
2023-03-03T17:05:53.177Z,51.50
2023-03-03T17:08:47.145Z,51.72
2023-03-03T17:11:35.340Z,52.08
2023-03-03T17:14:32.139Z,51.78
2023-03-03T17:17:10.684Z,51.92
2023-03-03T17:20:04.512Z,52.22
2023-03-03T17:22:39.771Z,52.61
2023-03-03T17:25:32.685Z,52.93
2023-03-03T17:28:38.003Z,52.91
2023-03-03T17:31:13.181Z,53.24
2023-03-03T17:33:45.380Z,53.26
2023-03-03T17:36:23.011Z,53.33
2023-03-03T17:39:07.584Z,53.33
2023-03-03T17:41:50.310Z,53.61
2023-03-03T17:44:44.119Z,53.80
2023-03-03T17:47:27.133Z,53.97
2023-03-03T17:50:08.996Z,54.11
2023-03-03T17:52:46.633Z,54.38
2023-03-03T17:55:27.676Z,54.81
2023-03-03T17:58:34.652Z,54.70
2023-03-03T18:01:11.939Z,54.68
2023-03-03T18:04:28.078Z,54.59
2023-03-03T18:07:48.045Z,54.63
2023-03-03T18:10:35.926Z,54.63
2023-03-03T18:13:43.294Z,54.81
2023-03-03T18:16:43.982Z,54.95
2023-03-03T18:19:47.305Z,55.13
2023-03-03T18:22:43.532Z,55.39
2023-03-03T18:25:14.097Z,55.72
2023-03-03T18:27:49.099Z,55.88
2023-03-03T18:30:21.098Z,55.84
2023-03-03T18:32:57.186Z,55.85
2023-03-03T18:35:35.993Z,55.98
2023-03-03T18:38:29.852Z,56.38
2023-03-03T18:41:12.210Z,56.63
2023-03-03T18:43:44.183Z,56.98
2023-03-03T18:46:35.926Z,56.96
2023-03-03T18:49:06.747Z,56.92
2023-03-03T18:51:38.960Z,57.04
2023-03-03T18:54:17.711Z,57.07
2023-03-03T18:56:54.277Z,57.37
2023-03-03T18:59:37.120Z,57.67
2023-03-03T19:02:24.856Z,57.85
2023-03-03T19:05:06.306Z,58.03
2023-03-03T19:07:42.129Z,58.07
2023-03-03T19:10:23.685Z,58.12
2023-03-03T19:13:00.265Z,58.13
2023-03-03T19:15:34.753Z,58.46
2023-03-03T19:18:06.907Z,58.73
2023-03-03T19:20:46.829Z,58.50
2023-03-03T19:23:20.036Z,58.46
2023-03-03T19:26:21.225Z,58.70
2023-03-03T19:29:07.909Z,58.85
2023-03-03T19:32:06.334Z,59.08
2023-03-03T19:35:02.431Z,59.44
2023-03-03T19:37:45.366Z,59.46
2023-03-03T19:40:45.183Z,59.48
2023-03-03T19:43:31.391Z,59.64
2023-03-03T19:46:26.823Z,59.86
2023-03-03T19:49:16.709Z,60.08
2023-03-03T19:52:05.644Z,59.79
2023-03-03T19:54:49.290Z,59.64
2023-03-03T19:57:36.970Z,59.65
2023-03-03T20:00:33.978Z,59.67
2023-03-03T20:03:20.186Z,59.89
2023-03-03T20:05:55.232Z,60.02
2023-03-03T20:08:47.928Z,59.87
2023-03-03T20:11:47.001Z,59.65
2023-03-03T20:14:30.737Z,59.80
2023-03-03T20:17:19.235Z,59.99
2023-03-03T20:20:17.362Z,60.28
2023-03-03T20:23:05.556Z,60.20
2023-03-03T20:25:58.237Z,60.04
2023-03-03T20:29:07.933Z,60.21
2023-03-03T20:31:46.868Z,60.65
2023-03-03T20:34:48.326Z,60.93
2023-03-03T20:37:30.139Z,60.90
2023-03-03T20:40:06.625Z,61.05
2023-03-03T20:42:45.359Z,61.14
2023-03-03T20:45:48.510Z,61.37
2023-03-03T20:48:36.948Z,61.62
2023-03-03T20:51:29.115Z,61.43
2023-03-03T20:54:24.746Z,61.50
2023-03-03T20:57:07.635Z,61.62
2023-03-03T20:59:47.468Z,62.08
2023-03-03T21:02:21.526Z,62.08
2023-03-03T21:05:24.117Z,62.00
2023-03-03T21:07:58.519Z,61.93
2023-03-03T21:10:39.072Z,62.19
2023-03-03T21:13:31.751Z,62.32
2023-03-03T21:16:07.954Z,62.04
2023-03-03T21:18:38.361Z,61.69
2023-03-03T21:21:10.193Z,61.76
2023-03-03T21:23:41.560Z,61.76
2023-03-03T21:26:11.776Z,62.07
2023-03-03T21:29:03.321Z,61.97
2023-03-03T21:31:45.828Z,61.65
2023-03-03T21:34:31.192Z,61.70
2023-03-03T21:37:06.336Z,61.98
2023-03-03T21:39:37.280Z,62.02
2023-03-03T21:42:19.955Z,62.11
2023-03-03T21:44:51.173Z,62.09
2023-03-03T21:47:22.875Z,62.04
2023-03-03T21:49:53.384Z,62.17
2023-03-03T21:52:23.366Z,62.25
2023-03-03T21:54:53.560Z,62.15
2023-03-03T21:57:23.141Z,62.11
2023-03-03T21:59:53.983Z,62.35
2023-03-03T22:02:23.939Z,62.48
2023-03-03T22:04:53.329Z,62.78
2023-03-03T22:07:22.344Z,62.83
2023-03-03T22:09:51.751Z,62.46
2023-03-03T22:12:21.222Z,62.57
2023-03-03T22:14:50.880Z,62.51
2023-03-03T22:17:20.053Z,62.67
2023-03-03T22:19:49.144Z,62.68
2023-03-03T22:22:18.355Z,62.60
2023-03-03T22:24:48.858Z,62.77
2023-03-03T22:27:19.465Z,63.03
2023-03-03T22:29:49.372Z,63.18
2023-03-03T22:32:18.972Z,63.21
2023-03-03T22:34:48.634Z,63.14
2023-03-03T22:37:18.123Z,62.86
2023-03-03T22:39:47.186Z,63.22
2023-03-03T22:42:16.406Z,63.49
2023-03-03T22:44:46.672Z,63.09
2023-03-03T22:47:16.866Z,63.11
2023-03-03T22:49:46.088Z,62.87
2023-03-03T22:52:16.111Z,62.98
2023-03-03T22:54:46.035Z,63.71
2023-03-03T22:57:17.222Z,63.33
2023-03-03T22:59:46.736Z,63.26
2023-03-03T23:02:17.656Z,63.36
2023-03-03T23:04:47.417Z,63.55
2023-03-03T23:07:16.742Z,63.90
2023-03-03T23:09:46.004Z,63.83
2023-03-03T23:12:15.811Z,63.62
2023-03-03T23:14:45.963Z,64.08
2023-03-03T23:17:15.245Z,64.19
2023-03-03T23:19:46.934Z,64.32
2023-03-03T23:22:17.539Z,64.20
2023-03-03T23:24:46.671Z,63.87
2023-03-03T23:27:16.077Z,64.04
2023-03-03T23:29:45.590Z,64.36
2023-03-03T23:32:14.864Z,64.75
2023-03-03T23:34:44.041Z,64.91
2023-03-03T23:37:13.080Z,65.04
2023-03-03T23:39:42.084Z,64.81
2023-03-03T23:42:11.818Z,64.90
2023-03-03T23:44:41.786Z,65.36
2023-03-03T23:47:10.899Z,65.42
2023-03-03T23:49:40.218Z,65.49
2023-03-03T23:52:09.362Z,65.40
2023-03-03T23:54:38.389Z,65.61
2023-03-03T23:57:08.543Z,66.15
2023-03-03T23:59:37.801Z,65.99
